createdAt,value
2023-01-19T00:00:57.276Z,-4.70
2023-01-19T00:03:24.253Z,-4.70
2023-01-19T00:05:51.644Z,-4.70
2023-01-19T00:08:19.259Z,-4.70
2023-01-19T00:10:48.616Z,-4.70
2023-01-19T00:13:16.266Z,-4.70
2023-01-19T00:15:43.654Z,-4.60
2023-01-19T00:18:11.233Z,-4.60
2023-01-19T00:20:41.897Z,-4.60
2023-01-19T00:23:09.569Z,-4.60
2023-01-19T00:25:42.584Z,-4.60
2023-01-19T00:28:11.428Z,-4.60
2023-01-19T00:30:39.604Z,-4.60
2023-01-19T00:33:06.642Z,-4.50
2023-01-19T00:35:35.165Z,-4.50
2023-01-19T00:38:03.203Z,-2.40
2023-01-19T00:40:30.170Z,-4.40
2023-01-19T00:42:57.195Z,-4.40
2023-01-19T00:45:24.959Z,-4.30
2023-01-19T00:47:57.281Z,-4.30
2023-01-19T00:50:26.431Z,-4.40
2023-01-19T00:52:55.215Z,-4.40
2023-01-19T00:55:23.085Z,-4.40
2023-01-19T00:57:50.327Z,-4.40
2023-01-19T01:00:22.192Z,-4.50
2023-01-19T01:02:51.807Z,-4.40
2023-01-19T01:05:19.832Z,-4.50
2023-01-19T01:07:48.390Z,-4.70
2023-01-19T01:10:28.248Z,-4.60
2023-01-19T01:12:58.787Z,-4.60
2023-01-19T01:15:27.885Z,-4.60
2023-01-19T01:17:55.708Z,-4.70
2023-01-19T01:20:27.129Z,-4.70
2023-01-19T01:22:55.385Z,-4.80
2023-01-19T01:25:23.929Z,-4.70
2023-01-19T01:27:51.052Z,-4.70
2023-01-19T01:30:18.718Z,-4.80
2023-01-19T01:32:45.737Z,-4.70
2023-01-19T01:35:13.971Z,-4.80
2023-01-19T01:37:42.818Z,-4.80
2023-01-19T01:40:13.352Z,-4.80
2023-01-19T01:42:40.734Z,-4.90
2023-01-19T01:45:33.933Z,-4.80
2023-01-19T01:48:05.981Z,-4.80
2023-01-19T01:50:37.555Z,-4.90
2023-01-19T01:53:14.138Z,-5.00
2023-01-19T01:55:49.340Z,-5.00
2023-01-19T01:58:16.966Z,-5.00
2023-01-19T02:01:02.796Z,-5.00
2023-01-19T02:03:29.985Z,-5.00
2023-01-19T02:06:01.973Z,-5.00
2023-01-19T02:08:51.810Z,-5.00
2023-01-19T02:11:37.707Z,-5.00
2023-01-19T02:14:05.984Z,-5.00
2023-01-19T02:16:33.846Z,-5.00
2023-01-19T02:19:01.340Z,-4.20
2023-01-19T02:21:43.352Z,-5.10
2023-01-19T02:24:11.031Z,-5.00
2023-01-19T02:26:44.987Z,-5.00
2023-01-19T02:29:16.385Z,-5.10
2023-01-19T02:31:43.604Z,-5.10
2023-01-19T02:34:15.477Z,-5.10
2023-01-19T02:36:53.112Z,-5.10
2023-01-19T02:39:26.508Z,-5.10
2023-01-19T02:41:57.427Z,-5.20
2023-01-19T02:44:26.436Z,-5.10
2023-01-19T02:46:57.229Z,-5.20
2023-01-19T02:49:27.667Z,-5.20
2023-01-19T02:51:54.919Z,-5.10
2023-01-19T02:54:21.835Z,-5.10
2023-01-19T02:57:11.647Z,-5.10
2023-01-19T03:00:09.871Z,-5.10
2023-01-19T03:03:02.210Z,-5.10
2023-01-19T03:05:47.573Z,-5.20
2023-01-19T03:08:23.148Z,-5.10
2023-01-19T03:11:08.798Z,-3.80
2023-01-19T03:13:51.004Z,-5.30
2023-01-19T03:16:38.822Z,-5.20
2023-01-19T03:19:15.602Z,-5.20
2023-01-19T03:21:47.292Z,-5.10
2023-01-19T03:24:17.376Z,-5.10
2023-01-19T03:26:49.869Z,-5.10
2023-01-19T03:29:19.838Z,-5.00
2023-01-19T03:31:50.090Z,-5.10
2023-01-19T03:34:19.044Z,-4.90
2023-01-19T03:36:50.905Z,-4.90
2023-01-19T03:39:26.762Z,-4.90
2023-01-19T03:42:01.474Z,-4.80
2023-01-19T03:44:30.354Z,-4.70
2023-01-19T03:46:59.529Z,-4.50
2023-01-19T03:49:26.762Z,-4.40
2023-01-19T03:51:57.027Z,-4.30
2023-01-19T03:54:23.991Z,-4.20
2023-01-19T03:56:52.524Z,-4.20
2023-01-19T03:59:20.108Z,-4.20
2023-01-19T04:01:47.485Z,-4.10
2023-01-19T04:04:16.069Z,-4.10
2023-01-19T04:06:43.695Z,-4.10
2023-01-19T04:09:10.683Z,-4.10
2023-01-19T04:11:37.713Z,-4.10
2023-01-19T04:14:04.768Z,-4.10
2023-01-19T04:16:31.724Z,-4.20
2023-01-19T04:18:58.890Z,-4.10
2023-01-19T04:21:25.934Z,-4.10
2023-01-19T04:23:53.337Z,-4.10
2023-01-19T04:26:20.385Z,-4.10
2023-01-19T04:28:47.332Z,-4.10
2023-01-19T04:31:14.554Z,-4.10
2023-01-19T04:33:41.722Z,-4.10
2023-01-19T04:36:08.807Z,-4.00
2023-01-19T04:38:36.100Z,-1.60
2023-01-19T04:41:03.101Z,-4.00
2023-01-19T04:43:30.185Z,-4.10
2023-01-19T04:45:57.296Z,-4.00
2023-01-19T04:48:24.303Z,-4.00
2023-01-19T04:50:52.620Z,-4.00
2023-01-19T04:53:19.564Z,-1.80
2023-01-19T04:55:46.905Z,-4.00
2023-01-19T04:58:14.068Z,-3.90
2023-01-19T05:00:41.031Z,-4.00
2023-01-19T05:03:08.029Z,-4.00
2023-01-19T05:05:35.632Z,-4.00
2023-01-19T05:08:02.826Z,-3.90
2023-01-19T05:10:30.396Z,-3.90
2023-01-19T05:12:57.515Z,-3.90
2023-01-19T05:15:24.511Z,-3.90
2023-01-19T05:21:44.552Z,-3.80
2023-01-19T05:24:11.592Z,-3.80
2023-01-19T05:26:38.550Z,-3.80
2023-01-19T05:29:05.507Z,-3.80
2023-01-19T05:31:32.793Z,-3.90
2023-01-19T05:33:59.852Z,-3.80
2023-01-19T05:36:27.243Z,-1.60
2023-01-19T05:39:17.268Z,-3.70
2023-01-19T05:41:45.613Z,-3.60
2023-01-19T05:44:13.672Z,-3.70
2023-01-19T05:46:41.090Z,-3.60
2023-01-19T05:49:08.161Z,-3.70
2023-01-19T05:51:38.201Z,-3.70
2023-01-19T05:54:06.161Z,-3.80
2023-01-19T05:56:33.514Z,-3.70
2023-01-19T05:59:00.969Z,-3.80
2023-01-19T06:05:56.903Z,-3.80
2023-01-19T06:08:24.033Z,-3.90
2023-01-19T06:10:51.061Z,-3.80
2023-01-19T06:13:18.010Z,-1.80
2023-01-19T06:15:45.572Z,-3.80
2023-01-19T06:18:14.869Z,-2.90
2023-01-19T06:20:41.767Z,-3.80
2023-01-19T06:23:10.577Z,-1.40
2023-01-19T06:25:37.593Z,-3.80
2023-01-19T06:28:04.667Z,-3.70
2023-01-19T06:30:31.718Z,-3.70
2023-01-19T06:32:58.901Z,-3.70
2023-01-19T06:35:26.077Z,-3.70
2023-01-19T06:37:53.810Z,-3.70
2023-01-19T06:40:20.751Z,-3.70
2023-01-19T06:42:49.332Z,-3.70
2023-01-19T06:45:16.551Z,-3.60
2023-01-19T06:47:43.474Z,-3.60
2023-01-19T06:50:10.984Z,-3.60
2023-01-19T06:52:42.644Z,-3.60
2023-01-19T06:55:11.597Z,-3.60
2023-01-19T06:57:40.516Z,-3.60
2023-01-19T07:00:09.174Z,-3.60
2023-01-19T07:02:36.272Z,-3.50
2023-01-19T07:05:34.361Z,-3.60
2023-01-19T07:08:01.364Z,-3.50
2023-01-19T07:11:22.213Z,-3.50
2023-01-19T07:13:15.374Z,-1.80
2023-01-19T07:15:42.357Z,-3.50
2023-01-19T07:18:09.847Z,-3.50
2023-01-19T07:20:37.741Z,-3.50
2023-01-19T07:23:04.810Z,-3.50
2023-01-19T07:25:32.170Z,-3.50
2023-01-19T07:28:00.284Z,-3.60
2023-01-19T07:30:27.578Z,-3.60
2023-01-19T07:32:58.664Z,-3.60
2023-01-19T07:35:26.222Z,-3.60
2023-01-19T07:37:53.195Z,-3.70
2023-01-19T07:40:20.304Z,-3.60
2023-01-19T07:42:49.221Z,-1.40
2023-01-19T07:45:20.867Z,-3.60
2023-01-19T07:47:49.103Z,-3.60
2023-01-19T07:50:18.176Z,-3.70
2023-01-19T07:52:45.631Z,-3.50
2023-01-19T07:55:12.643Z,-3.60
2023-01-19T07:57:39.555Z,-3.50
2023-01-19T08:00:08.929Z,-3.50
2023-01-19T08:02:41.972Z,-3.40
2023-01-19T08:05:09.300Z,-3.50
2023-01-19T08:07:36.319Z,-3.40
2023-01-19T08:10:03.348Z,-3.50
2023-01-19T08:12:30.287Z,-3.40
2023-01-19T08:14:57.280Z,-3.60
2023-01-19T08:17:24.221Z,-3.60
2023-01-19T08:19:51.151Z,-3.60
2023-01-19T08:22:18.122Z,-3.60
2023-01-19T08:24:45.161Z,-3.50
2023-01-19T08:27:14.823Z,-3.40
2023-01-19T08:29:42.003Z,-1.20
2023-01-19T08:32:09.145Z,-3.20
2023-01-19T08:34:36.205Z,-3.10
2023-01-19T08:37:03.184Z,-3.10
2023-01-19T08:39:30.243Z,-3.00
2023-01-19T08:41:58.214Z,-3.00
2023-01-19T08:44:25.225Z,-3.00
2023-01-19T08:46:52.118Z,-2.80
2023-01-19T08:49:19.073Z,-2.80
2023-01-19T08:51:47.027Z,-0.60
2023-01-19T08:54:14.121Z,-0.30
2023-01-19T08:56:41.171Z,-2.60
2023-01-19T08:59:10.815Z,-2.50
2023-01-19T09:01:39.214Z,-2.40
2023-01-19T09:04:06.645Z,-2.20
2023-01-19T09:06:34.253Z,0.40
2023-01-19T09:09:04.606Z,-1.90
2023-01-19T09:11:31.912Z,-1.80
2023-01-19T09:13:59.174Z,-1.80
2023-01-19T09:16:27.355Z,-1.70
2023-01-19T09:18:54.448Z,-1.60
2023-01-19T09:21:21.525Z,-1.70
2023-01-19T09:23:49.289Z,-1.70
2023-01-19T09:26:16.724Z,-1.60
2023-01-19T09:28:43.699Z,-1.60
2023-01-19T09:32:03.524Z,-1.70
2023-01-19T09:34:31.494Z,-1.70
2023-01-19T09:36:58.656Z,-1.80
2023-01-19T09:39:26.515Z,-1.90
2023-01-19T09:42:06.899Z,-2.00
2023-01-19T09:44:36.070Z,-2.00
2023-01-19T09:47:13.131Z,0.00
2023-01-19T09:49:45.714Z,-2.10
2023-01-19T09:52:16.148Z,-2.10
2023-01-19T09:54:55.172Z,-2.20
2023-01-19T09:57:27.291Z,-2.20
2023-01-19T09:59:59.667Z,-2.30
2023-01-19T10:02:53.215Z,-0.20
2023-01-19T10:05:52.703Z,-2.10
2023-01-19T10:09:02.981Z,-2.10
2023-01-19T10:11:52.939Z,-2.10
2023-01-19T10:14:30.673Z,-0.60
2023-01-19T10:17:08.077Z,-2.10
2023-01-19T10:19:46.692Z,-2.10
2023-01-19T10:22:23.131Z,-2.20
2023-01-19T10:24:55.806Z,-2.10
2023-01-19T10:27:35.071Z,-2.10
2023-01-19T10:30:02.799Z,-2.10
2023-01-19T10:32:34.181Z,-0.20
2023-01-19T10:35:05.075Z,-2.00
2023-01-19T10:37:38.414Z,-1.90
2023-01-19T10:40:11.750Z,-1.70
2023-01-19T10:42:41.149Z,0.50
2023-01-19T10:45:18.175Z,-0.90
2023-01-19T10:47:47.428Z,-1.40
2023-01-19T10:50:29.953Z,-1.40
2023-01-19T10:53:00.000Z,-1.50
2023-01-19T10:55:37.794Z,1.00
2023-01-19T10:58:06.349Z,-1.30
2023-01-19T11:00:36.713Z,0.30
2023-01-19T11:03:23.049Z,-1.30
2023-01-19T11:05:50.499Z,-1.10
2023-01-19T11:08:29.280Z,-0.80
2023-01-19T11:11:02.554Z,-0.50
2023-01-19T11:13:29.531Z,-0.40
2023-01-19T11:16:05.401Z,-0.20
2023-01-19T11:18:38.474Z,0.00
2023-01-19T11:21:09.350Z,0.10
2023-01-19T11:23:43.085Z,0.10
2023-01-19T11:26:16.502Z,0.00
2023-01-19T11:28:48.340Z,2.10
2023-01-19T11:31:15.376Z,-0.10
2023-01-19T11:33:51.267Z,-0.20
2023-01-19T11:36:27.486Z,-0.20
2023-01-19T11:39:00.264Z,-0.20
2023-01-19T11:41:33.961Z,-0.30
2023-01-19T11:44:15.829Z,-0.30
2023-01-19T11:46:47.412Z,-0.30
2023-01-19T11:49:20.169Z,-0.40
2023-01-19T11:51:56.675Z,1.50
2023-01-19T11:54:29.772Z,-0.40
2023-01-19T11:57:00.013Z,-0.50
2023-01-19T11:59:27.198Z,-0.60
2023-01-19T12:02:00.586Z,-0.60
2023-01-19T12:04:27.740Z,-0.70
2023-01-19T12:06:56.999Z,1.10
2023-01-19T12:09:28.405Z,-0.80
2023-01-19T12:12:15.465Z,-0.80
2023-01-19T12:14:53.133Z,-0.70
2023-01-19T12:17:28.113Z,-0.80
2023-01-19T12:20:03.906Z,-0.70
2023-01-19T12:22:40.820Z,-0.70
2023-01-19T12:25:22.194Z,-0.60
2023-01-19T12:27:56.077Z,-0.60
2023-01-19T12:30:26.942Z,-0.60
2023-01-19T12:33:20.457Z,-0.70
2023-01-19T12:36:04.166Z,-0.60
2023-01-19T12:38:39.561Z,-0.70
2023-01-19T12:41:30.411Z,-0.70
2023-01-19T12:44:21.784Z,-0.70
2023-01-19T12:46:55.305Z,-0.80
2023-01-19T12:49:30.100Z,-0.70
2023-01-19T12:52:34.435Z,-0.70
2023-01-19T12:55:17.490Z,-0.70
2023-01-19T13:01:42.900Z,-0.60
2023-01-19T13:04:33.373Z,-0.70
2023-01-19T13:07:10.405Z,-0.70
2023-01-19T13:09:39.445Z,-0.50
2023-01-19T13:12:14.400Z,1.40
2023-01-19T13:14:43.315Z,-0.70
2023-01-19T13:17:33.591Z,-0.70
2023-01-19T13:20:22.067Z,0.80
2023-01-19T13:22:50.808Z,-0.80
2023-01-19T13:25:35.493Z,1.20
2023-01-19T13:28:07.138Z,0.90
2023-01-19T13:30:35.277Z,-0.80
2023-01-19T13:33:19.177Z,-0.80
2023-01-19T13:35:55.767Z,-0.80
2023-01-19T13:38:23.972Z,-0.80
2023-01-19T13:40:52.677Z,0.80
2023-01-19T13:43:28.986Z,-0.80
2023-01-19T13:45:56.655Z,0.60
2023-01-19T13:48:27.056Z,-0.80
2023-01-19T13:51:00.102Z,1.30
2023-01-19T13:53:27.136Z,-0.80
2023-01-19T13:56:20.918Z,0.90
2023-01-19T13:59:11.869Z,-0.80
2023-01-19T14:01:41.558Z,-0.80
2023-01-19T14:04:27.781Z,-0.80
2023-01-19T14:07:23.459Z,-0.80
2023-01-19T14:10:02.990Z,-0.80
2023-01-19T14:12:30.151Z,-0.90
2023-01-19T14:14:57.274Z,-0.90
2023-01-19T14:17:29.336Z,-0.90
2023-01-19T14:19:58.063Z,-0.90
2023-01-19T14:22:57.454Z,-0.90
2023-01-19T14:25:32.303Z,-0.90
2023-01-19T14:28:29.830Z,-0.90
2023-01-19T14:31:02.396Z,-0.90
2023-01-19T14:33:44.755Z,-1.00
2023-01-19T14:36:40.947Z,-1.00
2023-01-19T14:39:20.333Z,-1.00
2023-01-19T14:41:48.268Z,-1.10
2023-01-19T14:44:37.246Z,-1.10
2023-01-19T14:47:07.137Z,1.10
2023-01-19T14:49:38.114Z,-1.20
2023-01-19T14:52:15.746Z,-1.20
2023-01-19T14:54:46.002Z,-1.20
2023-01-19T14:57:14.058Z,-1.30
2023-01-19T14:59:42.255Z,-1.30
2023-01-19T15:02:09.547Z,-1.30
2023-01-19T15:04:36.559Z,-1.30
2023-01-19T15:07:03.612Z,-1.30
2023-01-19T15:09:30.758Z,-1.40
2023-01-19T15:11:58.492Z,-1.40
2023-01-19T15:14:26.091Z,-1.50
2023-01-19T15:16:53.054Z,-1.50
2023-01-19T15:19:20.144Z,-1.50
2023-01-19T15:21:56.358Z,-1.60
2023-01-19T15:24:23.766Z,-1.70
2023-01-19T15:26:51.171Z,-1.60
2023-01-19T15:29:24.276Z,-1.60
2023-01-19T15:31:51.921Z,-1.70
2023-01-19T15:34:18.979Z,-1.80
2023-01-19T15:36:45.964Z,-1.80
2023-01-19T15:39:12.932Z,-1.80
2023-01-19T15:41:40.559Z,0.30
2023-01-19T15:44:10.813Z,0.20
2023-01-19T15:46:38.106Z,-2.00
2023-01-19T15:49:05.877Z,-2.00
2023-01-19T15:51:33.224Z,-2.00
2023-01-19T15:54:00.198Z,-2.10
2023-01-19T15:56:29.889Z,-2.20
2023-01-19T15:58:58.517Z,-2.20
2023-01-19T16:01:32.413Z,-2.20
2023-01-19T16:04:01.494Z,-2.30
2023-01-19T16:06:29.264Z,-2.30
2023-01-19T16:09:01.003Z,-2.30
2023-01-19T16:11:30.509Z,-2.30
2023-01-19T16:13:57.705Z,-2.30
2023-01-19T16:16:25.845Z,-2.40
2023-01-19T16:18:52.866Z,-2.50
2023-01-19T16:21:20.033Z,-2.60
2023-01-19T16:23:46.951Z,-2.50
2023-01-19T16:26:24.571Z,-2.60
2023-01-19T16:29:16.923Z,-1.80
2023-01-19T16:31:45.708Z,-2.50
2023-01-19T16:34:12.773Z,-2.50
2023-01-19T16:36:41.959Z,-2.50
2023-01-19T16:39:12.327Z,-2.50
2023-01-19T16:41:39.943Z,-2.60
2023-01-19T16:44:08.097Z,-2.60
2023-01-19T16:46:38.666Z,-2.60
2023-01-19T16:49:17.811Z,-2.50
2023-01-19T16:51:45.804Z,-2.50
2023-01-19T16:54:14.664Z,-2.50
2023-01-19T16:56:42.228Z,-2.50
2023-01-19T16:59:15.214Z,-2.40
2023-01-19T17:01:44.849Z,-2.50
2023-01-19T17:04:12.791Z,-2.30
2023-01-19T17:06:39.837Z,-2.30
2023-01-19T17:09:06.846Z,-2.30
2023-01-19T17:11:35.027Z,-2.30
2023-01-19T17:14:07.891Z,-2.30
2023-01-19T17:16:36.420Z,-2.20
2023-01-19T17:19:05.476Z,-2.30
2023-01-19T17:21:32.582Z,-2.20
2023-01-19T17:24:00.192Z,-2.20
2023-01-19T17:26:28.586Z,-2.20
2023-01-19T17:29:03.638Z,-2.20
2023-01-19T17:31:36.556Z,-2.20
2023-01-19T17:34:04.064Z,-2.20
2023-01-19T17:36:33.166Z,-2.20
2023-01-19T17:39:04.579Z,-2.20
2023-01-19T17:41:35.153Z,-2.10
2023-01-19T17:44:04.316Z,-2.10
2023-01-19T17:46:34.538Z,-2.10
2023-01-19T17:49:03.666Z,-2.10
2023-01-19T17:51:31.962Z,-2.10
2023-01-19T17:53:59.617Z,-2.10
2023-01-19T17:56:30.329Z,-2.10
2023-01-19T17:58:58.361Z,-2.10
2023-01-19T18:01:28.450Z,-2.10
2023-01-19T18:03:56.232Z,-2.10
2023-01-19T18:06:23.573Z,-2.10
2023-01-19T18:08:50.869Z,-2.10
2023-01-19T18:11:19.585Z,-2.20
2023-01-19T18:13:50.625Z,-2.20
2023-01-19T18:16:46.129Z,-2.10
2023-01-19T18:19:21.342Z,-2.10
2023-01-19T18:21:48.606Z,-2.10
2023-01-19T18:24:15.593Z,-2.10
2023-01-19T18:26:42.801Z,-2.10
2023-01-19T18:29:09.791Z,-2.20
2023-01-19T18:36:02.456Z,-2.10
2023-01-19T18:38:29.765Z,-0.50
2023-01-19T18:41:15.753Z,-2.10
2023-01-19T18:48:02.264Z,-2.00
2023-01-19T18:50:29.425Z,-2.10
2023-01-19T18:52:56.397Z,-2.10
2023-01-19T18:55:24.270Z,-2.10
2023-01-19T18:57:51.615Z,-2.10
2023-01-19T19:00:19.145Z,-2.10
2023-01-19T19:02:46.088Z,-2.00
2023-01-19T19:05:13.229Z,-2.10
2023-01-19T19:07:40.219Z,-2.10
2023-01-19T19:10:07.813Z,-2.10
2023-01-19T19:12:34.863Z,-2.00
2023-01-19T19:15:01.885Z,-2.10
2023-01-19T19:17:28.951Z,-2.00
2023-01-19T19:19:55.925Z,-2.00
2023-01-19T19:22:25.457Z,-2.10
2023-01-19T19:25:23.438Z,-2.00
2023-01-19T19:27:53.934Z,-2.00
2023-01-19T19:30:21.362Z,-2.00
2023-01-19T19:32:54.212Z,-2.00
2023-01-19T19:35:22.559Z,-2.00
2023-01-19T19:37:50.356Z,-2.00
2023-01-19T19:40:42.460Z,-2.10
2023-01-19T19:43:09.436Z,-0.60
2023-01-19T19:45:36.409Z,-2.10
2023-01-19T19:48:03.361Z,-2.10
2023-01-19T19:50:30.289Z,-2.00
2023-01-19T19:57:10.223Z,-2.00
2023-01-19T19:59:37.454Z,-2.00
2023-01-19T20:02:04.570Z,-2.00
2023-01-19T20:04:31.722Z,-2.10
2023-01-19T20:07:00.190Z,-2.00
2023-01-19T20:09:27.278Z,-2.00
2023-01-19T20:11:54.333Z,-2.00
2023-01-19T20:14:22.684Z,-2.10
2023-01-19T20:16:49.960Z,-2.00
2023-01-19T20:19:18.319Z,0.10
2023-01-19T20:21:45.815Z,-2.00
2023-01-19T20:24:18.076Z,-0.10
2023-01-19T20:26:52.835Z,-2.10
2023-01-19T20:29:21.292Z,-2.10
2023-01-19T20:31:54.104Z,-2.10
2023-01-19T20:34:23.798Z,-2.10
2023-01-19T20:36:53.298Z,-2.10
2023-01-19T20:39:22.336Z,-2.10
2023-01-19T20:41:51.374Z,-2.00
2023-01-19T20:44:22.183Z,-2.10
2023-01-19T20:46:50.064Z,0.00
2023-01-19T20:50:23.051Z,0.00
2023-01-19T20:52:50.314Z,-2.00
2023-01-19T20:55:18.344Z,-2.10
2023-01-19T20:57:45.427Z,-2.00
2023-01-19T21:00:12.871Z,-0.30
2023-01-19T21:02:39.998Z,-2.00
2023-01-19T21:05:07.567Z,-0.50
2023-01-19T21:07:34.501Z,-1.90
2023-01-19T21:10:37.044Z,-0.30
2023-01-19T21:13:04.048Z,-1.90
2023-01-19T21:15:31.005Z,-2.00
2023-01-19T21:17:58.087Z,-2.00
2023-01-19T21:20:25.072Z,-2.00
2023-01-19T21:22:52.437Z,-2.00
2023-01-19T21:25:19.403Z,-2.00
2023-01-19T21:28:46.585Z,-2.00
2023-01-19T21:31:14.531Z,-1.80
2023-01-19T21:33:42.494Z,-1.90
2023-01-19T21:36:10.971Z,-1.90
2023-01-19T21:38:38.952Z,-1.90
2023-01-19T21:41:12.732Z,-1.90
2023-01-19T21:43:41.866Z,-1.80
2023-01-19T21:46:16.232Z,-1.80
2023-01-19T21:48:43.225Z,-1.80
2023-01-19T21:51:10.552Z,-1.80
2023-01-19T21:53:37.774Z,-1.90
2023-01-19T21:56:08.729Z,0.10
2023-01-19T21:58:36.210Z,0.20
2023-01-19T22:01:05.837Z,-1.90
2023-01-19T22:03:32.903Z,-1.80
2023-01-19T22:06:14.411Z,-1.90
2023-01-19T22:08:41.994Z,-1.90
2023-01-19T22:11:10.901Z,-1.90
2023-01-19T22:13:53.781Z,-1.90
2023-01-19T22:20:44.925Z,-1.80
2023-01-19T22:23:11.899Z,-1.90
2023-01-19T22:25:38.852Z,-1.90
2023-01-19T22:28:05.795Z,0.10
2023-01-19T22:30:33.570Z,-0.10
2023-01-19T22:33:00.620Z,-1.90
2023-01-19T22:35:27.549Z,-2.00
2023-01-19T22:37:54.499Z,-1.90
2023-01-19T22:40:21.544Z,-1.90
2023-01-19T22:42:49.838Z,-2.00
2023-01-19T22:45:16.937Z,-2.00
2023-01-19T22:47:43.944Z,-2.00
2023-01-19T22:50:11.026Z,-1.90
2023-01-19T22:52:38.037Z,-1.90
2023-01-19T22:55:05.385Z,-2.00
2023-01-19T22:57:35.878Z,-1.90
2023-01-19T23:00:06.871Z,-2.00
2023-01-19T23:02:34.214Z,-1.90
2023-01-19T23:05:01.273Z,-1.90
2023-01-19T23:07:28.242Z,-1.90
2023-01-19T23:09:55.223Z,-1.90
2023-01-19T23:12:22.168Z,-1.90
2023-01-19T23:14:49.192Z,-1.90
2023-01-19T23:17:16.144Z,-0.30
2023-01-19T23:19:43.071Z,-1.90
2023-01-19T23:22:10.051Z,-1.90
2023-01-19T23:24:37.235Z,-1.90
2023-01-19T23:27:04.271Z,-1.80
2023-01-19T23:29:31.232Z,-1.80
2023-01-19T23:31:58.220Z,-1.90
2023-01-19T23:34:25.179Z,-1.80
2023-01-19T23:36:52.126Z,-1.80
2023-01-19T23:39:21.860Z,-1.60
2023-01-19T23:41:49.524Z,-1.80
2023-01-19T23:44:17.300Z,-1.80
2023-01-19T23:46:44.880Z,-1.80
2023-01-19T23:49:12.900Z,-1.80
2023-01-19T23:51:40.892Z,-1.80
2023-01-19T23:54:08.022Z,-1.80
